createdAt,value
2022-12-07T00:01:52.780Z,9.98
2022-12-07T00:04:55.043Z,10.13
2022-12-07T00:07:57.280Z,9.82
2022-12-07T00:11:11.091Z,9.45
2022-12-07T00:14:15.249Z,9.23
2022-12-07T00:17:17.415Z,9.85
2022-12-07T00:20:19.831Z,9.90
2022-12-07T00:23:22.067Z,9.00
2022-12-07T00:26:27.100Z,9.88
2022-12-07T00:29:29.363Z,9.98
2022-12-07T00:32:31.566Z,10.20
2022-12-07T00:35:33.750Z,9.97
2022-12-07T00:38:37.441Z,9.88
2022-12-07T00:41:39.655Z,10.68
2022-12-07T00:44:41.921Z,8.02
2022-12-07T00:47:44.105Z,10.88
2022-12-07T00:50:46.330Z,10.23
2022-12-07T00:53:48.783Z,11.77
2022-12-07T00:56:50.955Z,11.50
2022-12-07T00:59:56.348Z,10.93
2022-12-07T01:02:58.632Z,11.38
2022-12-07T01:06:01.003Z,11.07
2022-12-07T01:09:04.873Z,11.07
2022-12-07T01:12:07.208Z,12.20
2022-12-07T01:15:09.827Z,12.50
2022-12-07T01:18:12.344Z,11.93
2022-12-07T01:21:19.848Z,11.27
2022-12-07T01:24:22.047Z,9.77
2022-12-07T01:27:24.215Z,13.48
2022-12-07T01:30:26.505Z,12.27
2022-12-07T01:33:31.283Z,11.25
2022-12-07T01:36:35.755Z,12.03
2022-12-07T01:39:37.979Z,11.95
2022-12-07T01:42:40.206Z,12.25
2022-12-07T01:45:43.026Z,12.52
2022-12-07T01:48:45.236Z,12.07
2022-12-07T01:51:48.777Z,12.77
2022-12-07T01:54:54.645Z,13.43
2022-12-07T01:57:57.135Z,13.95
2022-12-07T02:01:00.160Z,14.07
2022-12-07T02:04:02.807Z,15.40
2022-12-07T02:07:05.940Z,15.13
2022-12-07T02:10:18.899Z,14.88
2022-12-07T02:13:23.780Z,15.73
2022-12-07T02:16:56.272Z,15.40
2022-12-07T02:20:09.220Z,15.60
2022-12-07T02:23:17.468Z,15.73
2022-12-07T02:26:50.779Z,15.18
2022-12-07T02:30:09.638Z,14.60
2022-12-07T02:33:16.960Z,14.98
2022-12-07T02:36:31.303Z,14.50
2022-12-07T02:40:11.380Z,14.50
2022-12-07T02:43:18.407Z,14.98
2022-12-07T02:46:27.105Z,15.45
2022-12-07T02:49:30.741Z,15.45
2022-12-07T02:52:32.962Z,15.38
2022-12-07T02:55:38.603Z,15.00
2022-12-07T02:59:06.948Z,14.75
2022-12-07T03:02:21.492Z,14.95
2022-12-07T03:05:39.019Z,14.95
2022-12-07T03:09:04.848Z,14.18
2022-12-07T03:12:15.622Z,14.47
2022-12-07T03:15:33.445Z,15.00
2022-12-07T03:18:41.173Z,15.40
2022-12-07T03:21:50.989Z,15.13
2022-12-07T03:24:59.351Z,14.48
2022-12-07T03:28:05.296Z,15.27
2022-12-07T03:31:20.998Z,14.63
2022-12-07T03:34:28.116Z,14.73
2022-12-07T03:37:34.481Z,14.25
2022-12-07T03:40:45.785Z,14.25
2022-12-07T03:43:48.024Z,13.83
2022-12-07T03:47:02.349Z,14.38
2022-12-07T03:50:26.879Z,14.93
2022-12-07T03:53:55.997Z,14.25
2022-12-07T03:56:58.842Z,14.77
2022-12-07T04:00:02.842Z,14.93
2022-12-07T04:03:14.277Z,16.60
2022-12-07T04:06:16.573Z,16.25
2022-12-07T04:09:19.086Z,16.30
2022-12-07T04:12:22.104Z,15.20
2022-12-07T04:15:24.493Z,15.27
2022-12-07T04:18:26.712Z,14.98
2022-12-07T04:21:28.951Z,14.65
2022-12-07T04:24:31.267Z,13.98
2022-12-07T04:27:33.507Z,13.93
2022-12-07T04:30:35.667Z,13.33
2022-12-07T04:33:37.853Z,14.00
2022-12-07T04:36:40.660Z,14.40
2022-12-07T04:39:44.819Z,14.52
2022-12-07T04:42:47.023Z,15.20
2022-12-07T04:45:49.682Z,14.93
2022-12-07T04:48:53.080Z,14.27
2022-12-07T04:51:55.300Z,14.70
2022-12-07T04:54:57.574Z,13.20
2022-12-07T04:57:59.781Z,13.38
2022-12-07T05:01:02.012Z,13.87
2022-12-07T05:04:04.365Z,12.13
2022-12-07T05:07:06.526Z,10.25
2022-12-07T05:10:09.152Z,8.52
2022-12-07T05:13:11.385Z,7.82
2022-12-07T05:16:13.568Z,7.67
2022-12-07T05:19:15.917Z,8.50
2022-12-07T05:22:18.103Z,8.13
2022-12-07T05:25:20.362Z,7.40
2022-12-07T05:28:22.512Z,7.88
2022-12-07T05:31:25.638Z,8.17
2022-12-07T05:34:27.859Z,7.38
2022-12-07T05:37:30.084Z,6.45
2022-12-07T05:40:32.446Z,7.07
2022-12-07T05:43:34.765Z,6.70
2022-12-07T05:46:37.281Z,6.80
2022-12-07T05:49:39.493Z,6.70
2022-12-07T05:52:41.737Z,7.75
2022-12-07T05:55:44.406Z,7.70
2022-12-07T05:59:04.899Z,7.07
2022-12-07T06:02:12.801Z,6.87
2022-12-07T06:05:15.130Z,7.60
2022-12-07T06:08:17.437Z,7.70
2022-12-07T06:11:37.917Z,7.30
2022-12-07T06:14:40.840Z,7.25
2022-12-07T06:17:43.028Z,7.00
2022-12-07T06:20:45.205Z,7.72
2022-12-07T06:23:48.866Z,8.50
2022-12-07T06:26:51.031Z,8.02
2022-12-07T06:29:53.293Z,8.43
2022-12-07T06:32:55.453Z,8.67
2022-12-07T06:35:57.646Z,8.23
2022-12-07T06:38:59.833Z,8.85
2022-12-07T06:42:02.019Z,9.23
2022-12-07T06:45:04.600Z,8.68
2022-12-07T06:48:06.778Z,8.80
2022-12-07T06:51:09.298Z,9.18
2022-12-07T06:54:12.365Z,10.02
2022-12-07T06:57:14.578Z,9.07
2022-12-07T07:00:21.826Z,10.05
2022-12-07T07:03:24.665Z,9.83
2022-12-07T07:06:26.838Z,9.80
2022-12-07T07:09:29.050Z,10.15
2022-12-07T07:12:31.239Z,9.75
2022-12-07T07:15:34.031Z,11.23
2022-12-07T07:18:36.323Z,10.10
2022-12-07T07:21:38.471Z,10.18
2022-12-07T07:24:40.944Z,10.27
2022-12-07T07:27:43.176Z,11.38
2022-12-07T07:30:46.009Z,11.75
2022-12-07T07:33:48.670Z,11.20
2022-12-07T07:36:50.895Z,11.40
2022-12-07T07:39:53.172Z,12.20
2022-12-07T07:42:55.494Z,11.68
2022-12-07T07:45:59.552Z,12.13
2022-12-07T07:49:01.795Z,11.67
2022-12-07T07:52:04.612Z,12.52
2022-12-07T07:55:09.612Z,9.20
2022-12-07T07:58:11.808Z,12.10
2022-12-07T08:01:14.718Z,12.18
2022-12-07T08:04:17.264Z,16.70
2022-12-07T08:07:19.621Z,19.83
2022-12-07T08:10:21.834Z,14.65
2022-12-07T08:13:30.632Z,13.20
2022-12-07T08:16:33.433Z,15.82
2022-12-07T08:19:35.907Z,10.53
2022-12-07T08:22:38.087Z,13.50
2022-12-07T08:25:40.548Z,11.88
2022-12-07T08:28:43.202Z,12.25
2022-12-07T08:31:45.452Z,11.18
2022-12-07T08:34:47.674Z,11.60
2022-12-07T08:37:49.878Z,12.52
2022-12-07T08:40:56.801Z,12.07
2022-12-07T08:43:59.028Z,12.68
2022-12-07T08:47:04.182Z,13.20
2022-12-07T08:50:08.298Z,15.77
2022-12-07T08:53:10.563Z,14.38
2022-12-07T08:56:13.027Z,14.75
2022-12-07T08:59:16.115Z,14.05
2022-12-07T09:02:18.330Z,13.40
2022-12-07T09:05:20.649Z,9.77
2022-12-07T09:08:28.035Z,8.85
2022-12-07T09:11:30.657Z,7.80
2022-12-07T09:14:32.957Z,6.20
2022-12-07T09:17:36.629Z,5.03
2022-12-07T09:20:38.866Z,4.30
2022-12-07T09:23:42.660Z,3.70
2022-12-07T09:26:45.494Z,3.88
2022-12-07T09:29:47.730Z,3.63
2022-12-07T09:32:50.070Z,3.30
2022-12-07T09:35:52.979Z,3.63
2022-12-07T09:38:55.412Z,3.28
2022-12-07T09:41:58.771Z,3.20
2022-12-07T09:45:01.291Z,3.15
2022-12-07T09:48:04.644Z,2.80
2022-12-07T09:51:24.224Z,2.97
2022-12-07T09:54:27.201Z,3.00
2022-12-07T09:57:31.762Z,3.20
2022-12-07T10:00:33.915Z,2.97
2022-12-07T10:03:36.945Z,2.78
2022-12-07T10:06:39.863Z,2.70
2022-12-07T10:09:42.126Z,3.30
2022-12-07T10:12:55.224Z,2.85
2022-12-07T10:16:06.323Z,2.95
2022-12-07T10:19:20.082Z,2.80
2022-12-07T10:22:23.018Z,2.97
2022-12-07T10:25:33.910Z,3.00
2022-12-07T10:28:41.818Z,3.50
2022-12-07T10:31:45.510Z,3.75
2022-12-07T10:34:52.091Z,3.83
2022-12-07T10:37:56.359Z,3.30
2022-12-07T10:41:08.718Z,3.50
2022-12-07T10:44:22.438Z,4.18
2022-12-07T10:47:24.730Z,5.00
2022-12-07T10:50:27.103Z,4.93
2022-12-07T10:53:41.341Z,5.00
2022-12-07T10:57:05.325Z,5.10
2022-12-07T11:00:13.880Z,5.05
2022-12-07T11:03:28.174Z,3.20
2022-12-07T11:06:41.068Z,2.03
2022-12-07T11:10:22.008Z,1.90
2022-12-07T11:13:50.398Z,1.90
2022-12-07T11:17:22.070Z,1.52
2022-12-07T11:20:38.778Z,1.88
2022-12-07T11:24:07.160Z,1.80
2022-12-07T11:27:27.370Z,2.37
2022-12-07T11:31:00.725Z,3.13
2022-12-07T11:34:31.208Z,6.50
2022-12-07T11:40:45.024Z,6.32
2022-12-07T11:44:02.215Z,3.97
2022-12-07T11:47:07.459Z,3.50
2022-12-07T11:50:28.354Z,4.38
2022-12-07T11:53:42.525Z,3.83
2022-12-07T11:56:45.089Z,4.72
2022-12-07T11:59:51.702Z,4.80
2022-12-07T12:03:01.396Z,4.53
2022-12-07T12:06:03.687Z,5.13
2022-12-07T12:17:01.274Z,4.13
2022-12-07T12:20:29.261Z,4.50
2022-12-07T12:23:52.130Z,4.40
2022-12-07T12:27:21.164Z,4.93
2022-12-07T12:30:40.907Z,3.97
2022-12-07T12:33:54.652Z,4.37
2022-12-07T12:37:03.249Z,4.00
2022-12-07T12:40:17.279Z,3.83
2022-12-07T12:43:53.865Z,4.22
2022-12-07T12:47:01.022Z,4.80
2022-12-07T12:50:18.966Z,4.27
2022-12-07T12:53:28.007Z,4.47
2022-12-07T12:56:30.367Z,4.75
2022-12-07T12:59:34.840Z,4.43
2022-12-07T13:02:39.569Z,4.57
2022-12-07T13:05:45.098Z,4.90
2022-12-07T13:08:47.611Z,4.70
2022-12-07T13:11:51.428Z,3.90
2022-12-07T13:15:32.746Z,3.00
2022-12-07T13:18:35.019Z,3.40
2022-12-07T13:21:43.740Z,2.80
2022-12-07T13:24:47.402Z,2.70
2022-12-07T13:28:19.219Z,3.10
2022-12-07T13:31:33.597Z,3.03
2022-12-07T13:34:41.040Z,3.42
2022-12-07T13:37:43.285Z,3.10
2022-12-07T13:41:20.501Z,3.25
2022-12-07T13:44:23.393Z,3.03
2022-12-07T13:47:40.577Z,3.40
2022-12-07T13:50:42.879Z,3.55
2022-12-07T13:53:50.717Z,3.57
2022-12-07T13:56:54.264Z,3.80
2022-12-07T13:59:57.252Z,4.13
2022-12-07T14:03:06.031Z,3.95
2022-12-07T14:06:17.516Z,3.55
2022-12-07T14:09:25.495Z,5.10
2022-12-07T14:12:29.242Z,3.45
2022-12-07T14:15:33.735Z,3.97
2022-12-07T14:18:43.182Z,3.88
2022-12-07T14:21:46.390Z,5.40
2022-12-07T14:24:49.777Z,3.83
2022-12-07T14:28:01.577Z,4.28
2022-12-07T14:31:08.875Z,3.67
2022-12-07T14:34:14.931Z,3.67
2022-12-07T14:37:17.831Z,3.70
2022-12-07T14:40:22.961Z,4.27
2022-12-07T14:43:25.951Z,3.97
2022-12-07T14:46:28.978Z,4.22
2022-12-07T14:56:06.790Z,4.63
2022-12-07T14:59:09.787Z,4.30
2022-12-07T15:02:14.619Z,4.15
2022-12-07T15:05:19.139Z,4.80
2022-12-07T15:08:22.576Z,4.78
2022-12-07T15:11:25.002Z,6.70
2022-12-07T15:14:27.832Z,4.93
2022-12-07T15:17:32.453Z,5.05
2022-12-07T15:20:35.655Z,5.13
2022-12-07T15:23:38.551Z,4.53
2022-12-07T15:26:42.043Z,4.77
2022-12-07T15:29:45.139Z,5.03
2022-12-07T15:32:54.484Z,4.82
2022-12-07T15:35:57.580Z,4.75
2022-12-07T15:39:15.910Z,5.32
2022-12-07T15:42:18.916Z,5.00
2022-12-07T15:45:21.915Z,10.50
2022-12-07T15:48:29.157Z,6.88
2022-12-07T15:51:32.617Z,6.38
2022-12-07T15:54:35.604Z,5.95
2022-12-07T15:57:39.932Z,13.27
2022-12-07T16:00:44.979Z,6.50
2022-12-07T16:03:50.437Z,6.30
2022-12-07T16:06:52.735Z,8.70
2022-12-07T16:09:54.930Z,7.18
2022-12-07T16:12:57.174Z,6.87
2022-12-07T16:16:02.727Z,7.43
2022-12-07T16:19:05.352Z,8.65
2022-12-07T16:22:07.629Z,9.13
2022-12-07T16:25:10.089Z,8.43
2022-12-07T16:28:12.258Z,9.27
2022-12-07T16:31:16.529Z,9.02
2022-12-07T16:34:19.632Z,8.57
2022-12-07T16:37:21.866Z,8.65
2022-12-07T16:40:24.145Z,14.98
2022-12-07T16:43:26.497Z,11.70
2022-12-07T16:46:36.990Z,9.77
2022-12-07T16:49:46.910Z,8.65
2022-12-07T16:52:52.789Z,17.23
2022-12-07T16:55:55.145Z,15.23
2022-12-07T16:58:59.842Z,8.30
2022-12-07T17:02:08.575Z,8.05
2022-12-07T17:05:10.756Z,10.25
2022-12-07T17:08:36.149Z,13.00
2022-12-07T17:11:38.567Z,12.90
2022-12-07T17:15:01.706Z,15.20
2022-12-07T17:18:08.296Z,10.95
2022-12-07T17:21:14.137Z,10.10
2022-12-07T17:24:19.517Z,10.73
2022-12-07T17:27:21.980Z,12.65
2022-12-07T17:30:26.672Z,14.60
2022-12-07T17:33:42.755Z,14.45
2022-12-07T17:36:50.199Z,15.93
2022-12-07T17:39:57.134Z,14.90
2022-12-07T17:43:08.579Z,14.88
2022-12-07T17:46:16.492Z,14.03
2022-12-07T17:49:19.647Z,14.45
2022-12-07T17:52:49.150Z,12.75
2022-12-07T17:56:27.091Z,11.38
2022-12-07T17:59:19.705Z,14.85
2022-12-07T18:02:22.398Z,15.63
2022-12-07T18:05:24.828Z,28.02
2022-12-07T18:08:27.416Z,18.45
2022-12-07T18:11:30.631Z,20.52
2022-12-07T18:14:33.519Z,20.17
2022-12-07T18:17:36.742Z,18.57
2022-12-07T18:20:39.606Z,17.70
2022-12-07T18:23:44.085Z,18.75
2022-12-07T18:26:48.132Z,20.88
2022-12-07T18:29:50.975Z,22.80
2022-12-07T18:32:54.124Z,29.57
2022-12-07T18:35:56.825Z,31.52
2022-12-07T18:39:02.448Z,33.25
2022-12-07T18:42:06.185Z,33.55
2022-12-07T18:45:12.793Z,37.33
2022-12-07T18:48:16.568Z,36.23
2022-12-07T18:51:21.055Z,38.72
2022-12-07T18:54:23.715Z,38.03
2022-12-07T18:57:26.468Z,34.90
2022-12-07T19:00:31.878Z,31.55
2022-12-07T19:03:34.614Z,38.03
2022-12-07T19:06:37.271Z,29.67
2022-12-07T19:09:40.331Z,28.92
2022-12-07T19:12:46.437Z,30.50
2022-12-07T19:15:49.874Z,30.95
2022-12-07T19:18:52.972Z,34.00
2022-12-07T19:21:56.141Z,34.53
2022-12-07T19:24:58.926Z,31.63
2022-12-07T19:28:02.177Z,32.95
2022-12-07T19:31:09.376Z,34.50
2022-12-07T19:34:15.736Z,31.43
2022-12-07T19:37:19.098Z,32.42
2022-12-07T19:40:22.111Z,24.90
2022-12-07T19:43:25.121Z,26.05
2022-12-07T19:46:29.900Z,31.67
2022-12-07T19:49:37.348Z,31.57
2022-12-07T19:52:43.418Z,29.55
2022-12-07T19:55:47.012Z,30.75
2022-12-07T19:58:50.323Z,29.77
2022-12-07T20:01:53.773Z,34.08
2022-12-07T20:05:00.508Z,35.20
2022-12-07T20:08:08.572Z,34.83
2022-12-07T20:11:29.924Z,47.35
2022-12-07T20:14:33.866Z,40.90
2022-12-07T20:17:38.587Z,39.88
2022-12-07T20:20:45.465Z,42.63
2022-12-07T20:23:49.783Z,48.75
2022-12-07T20:26:57.713Z,49.10
2022-12-07T20:30:01.069Z,43.47
2022-12-07T20:33:04.750Z,45.10
2022-12-07T20:36:09.441Z,44.87
2022-12-07T20:39:14.268Z,47.15
2022-12-07T20:42:36.070Z,43.20
2022-12-07T20:45:49.537Z,43.47
2022-12-07T20:48:54.121Z,41.22
2022-12-07T20:51:57.516Z,39.60
2022-12-07T20:55:01.688Z,37.03
2022-12-07T20:58:06.635Z,42.95
2022-12-07T21:01:09.294Z,39.90
2022-12-07T21:04:13.180Z,38.10
2022-12-07T21:07:15.724Z,34.90
2022-12-07T21:10:18.185Z,37.20
2022-12-07T21:13:20.444Z,35.30
2022-12-07T21:16:28.197Z,34.63
2022-12-07T21:19:30.741Z,34.78
2022-12-07T21:22:33.008Z,32.63
2022-12-07T21:25:35.183Z,32.92
2022-12-07T21:28:37.481Z,34.92
2022-12-07T21:31:39.788Z,34.28
2022-12-07T21:34:42.155Z,32.03
2022-12-07T21:37:44.398Z,32.40
2022-12-07T21:40:46.605Z,31.23
2022-12-07T21:43:49.452Z,32.10
2022-12-07T21:46:51.683Z,31.20
2022-12-07T21:49:53.954Z,29.88
2022-12-07T21:52:56.324Z,27.93
2022-12-07T21:55:58.549Z,29.67
2022-12-07T21:59:21.074Z,28.70
2022-12-07T22:02:23.300Z,32.40
2022-12-07T22:05:25.508Z,26.88
2022-12-07T22:08:28.376Z,25.30
2022-12-07T22:11:30.601Z,25.48
2022-12-07T22:14:51.044Z,27.42
2022-12-07T22:17:53.610Z,21.95
2022-12-07T22:21:00.273Z,22.88
2022-12-07T22:24:04.989Z,23.10
2022-12-07T22:27:07.196Z,19.83
2022-12-07T22:30:11.412Z,23.42
2022-12-07T22:33:13.574Z,25.13
2022-12-07T22:36:16.479Z,26.13
2022-12-07T22:39:18.818Z,23.57
2022-12-07T22:42:21.113Z,24.50
2022-12-07T22:45:23.363Z,23.02
2022-12-07T22:48:26.489Z,23.45
2022-12-07T22:51:30.903Z,24.90
2022-12-07T22:54:33.094Z,24.17
2022-12-07T22:57:35.277Z,23.50
2022-12-07T23:00:37.460Z,24.00
2022-12-07T23:03:40.229Z,21.50
2022-12-07T23:06:42.510Z,22.65
2022-12-07T23:09:44.808Z,20.43
2022-12-07T23:13:06.016Z,19.13
2022-12-07T23:16:13.693Z,19.13
2022-12-07T23:19:16.040Z,19.55
2022-12-07T23:22:18.211Z,18.88
2022-12-07T23:25:20.442Z,19.37
2022-12-07T23:28:22.689Z,21.80
2022-12-07T23:31:25.400Z,22.48
2022-12-07T23:34:27.696Z,23.13
2022-12-07T23:37:29.876Z,21.75
2022-12-07T23:40:32.049Z,22.60
2022-12-07T23:43:35.739Z,22.52
2022-12-07T23:46:37.981Z,22.23
2022-12-07T23:49:40.437Z,21.80
2022-12-07T23:52:42.590Z,20.75
2022-12-07T23:55:45.895Z,20.10
2022-12-07T23:58:49.469Z,20.23
